Time;durP1;ratioP1;P1;durP2;ratioP2;P2;SDS_P1;SDS_P2;PMS_P1;PMS_P2;Temp;Humidity;BMP_temperature;BMP_pressure;BME280_temperature;BME280_humidity;BME280_pressure;Samples;Min_cycle;Max_cycle;Signal;HPM_P1;HPM_P2
2022/03/13 00:00:35;;;;;;;28.65;19.30;;;7.80;85.90;;;;;;5013105;28;20057;-39
2022/03/13 00:03:02;;;;;;;32.65;18.33;;;7.80;86.20;;;;;;5004201;28;20103;-39
2022/03/13 00:05:38;;;;;;;27.13;18.10;;;7.80;86.50;;;;;;5013615;28;20069;-39
2022/03/13 00:08:15;;;;;;;30.20;17.75;;;7.80;86.70;;;;;;5013533;28;20073;-39
2022/03/13 00:10:43;;;;;;;25.30;17.95;;;7.80;86.80;;;;;;5014288;28;20057;-39
2022/03/13 00:13:19;;;;;;;30.48;17.92;;;7.80;87.10;;;;;;5012654;28;20108;-39
2022/03/13 00:15:49;;;;;;;25.95;18.30;;;7.80;87.10;;;;;;5012525;28;20076;-39
2022/03/13 00:18:16;;;;;;;24.60;17.08;;;7.80;87.20;;;;;;5013176;28;20048;-39
2022/03/13 00:20:44;;;;;;;26.17;17.85;;;7.80;87.10;;;;;;5011477;28;20577;-40
2022/03/13 00:23:12;;;;;;;26.02;18.35;;;7.70;87.50;;;;;;5007822;28;20077;-39
2022/03/13 00:25:38;;;;;;;28.38;18.88;;;7.70;87.70;;;;;;5013281;28;20547;-39
2022/03/13 00:28:08;;;;;;;28.67;18.80;;;7.70;87.80;;;;;;5011977;28;20056;-39
2022/03/13 00:30:35;;;;;;;25.42;17.63;;;7.70;88.00;;;;;;5012020;28;20057;-39
2022/03/13 00:33:02;;;;;;;28.80;17.77;;;7.70;88.20;;;;;;5010733;28;20096;-39
2022/03/13 00:35:29;;;;;;;29.02;18.38;;;7.70;88.30;;;;;;5013182;28;20482;-39
2022/03/13 00:37:57;;;;;;;28.73;18.00;;;7.70;88.40;;;;;;5010616;28;20045;-39
2022/03/13 00:40:24;;;;;;;26.63;17.58;;;7.70;88.40;;;;;;5012350;28;20061;-39
2022/03/13 00:42:51;;;;;;;25.55;17.73;;;7.70;88.60;;;;;;5027381;28;20164;-39
2022/03/13 00:45:18;;;;;;;28.42;18.80;;;7.70;88.60;;;;;;5009250;28;20056;-39
2022/03/13 00:47:45;;;;;;;32.05;18.23;;;7.70;88.90;;;;;;4999250;28;20474;-39
2022/03/13 00:50:11;;;;;;;27.27;18.70;;;7.70;88.70;;;;;;5013158;28;20125;-40
2022/03/13 00:52:38;;;;;;;28.20;18.65;;;7.70;88.90;;;;;;5010999;28;20057;-40
2022/03/13 00:55:07;;;;;;;26.90;18.13;;;7.60;89.20;;;;;;5011536;28;20049;-40
2022/03/13 00:57:34;;;;;;;30.60;19.50;;;7.60;89.30;;;;;;5012218;28;20478;-39
2022/03/13 01:00:01;;;;;;;29.42;19.05;;;7.60;89.60;;;;;;5011266;28;20049;-39
2022/03/13 01:02:27;;;;;;;27.60;19.35;;;7.60;89.40;;;;;;5010497;28;20405;-39
2022/03/13 01:04:54;;;;;;;26.63;18.42;;;7.60;89.80;;;;;;5012669;28;20383;-39
2022/03/13 01:07:21;;;;;;;27.27;18.75;;;7.60;90.00;;;;;;5011717;28;20133;-40
2022/03/13 01:09:48;;;;;;;30.40;18.58;;;7.60;90.00;;;;;;5011155;28;20051;-39
2022/03/13 01:12:16;;;;;;;26.58;18.02;;;7.60;90.00;;;;;;5009100;28;20046;-39
2022/03/13 01:14:42;;;;;;;26.05;17.75;;;7.60;90.00;;;;;;5010475;28;20050;-39
2022/03/13 01:17:09;;;;;;;25.98;18.25;;;7.60;90.00;;;;;;5011815;28;20408;-39
2022/03/13 01:19:37;;;;;;;29.60;18.25;;;7.60;90.10;;;;;;5010775;28;20054;-39
2022/03/13 01:22:04;;;;;;;26.02;18.20;;;7.60;90.10;;;;;;5010434;28;20497;-39
2022/03/13 01:24:31;;;;;;;26.58;18.17;;;7.60;90.20;;;;;;5010148;28;20390;-39
2022/03/13 01:27:02;;;;;;;30.13;17.92;;;7.70;90.30;;;;;;5009949;28;20061;-38
2022/03/13 01:29:30;;;;;;;26.83;18.23;;;7.60;90.30;;;;;;5012469;28;20477;-39
2022/03/13 01:31:57;;;;;;;32.70;17.92;;;7.70;90.30;;;;;;5010813;28;20103;-39
2022/03/13 01:34:37;;;;;;;28.52;19.00;;;7.60;90.40;;;;;;5012199;28;20136;-39
2022/03/13 01:37:04;;;;;;;28.83;18.60;;;7.70;90.50;;;;;;5011952;28;20432;-39
2022/03/13 01:39:30;;;;;;;28.65;17.98;;;7.70;90.50;;;;;;5012133;28;20046;-39
2022/03/13 01:41:57;;;;;;;25.73;17.02;;;7.70;90.40;;;;;;5011111;28;20136;-39
2022/03/13 01:44:24;;;;;;;26.00;17.13;;;7.70;90.40;;;;;;5008251;28;20038;-39
2022/03/13 01:46:52;;;;;;;28.92;17.67;;;7.80;90.50;;;;;;5009510;28;20077;-39
2022/03/13 01:49:19;;;;;;;25.77;17.13;;;7.80;90.50;;;;;;5011361;28;20046;-39
2022/03/13 01:51:45;;;;;;;24.73;16.42;;;7.90;90.40;;;;;;5008958;28;20073;-39
2022/03/13 01:54:13;;;;;;;25.00;17.13;;;7.90;90.30;;;;;;5019386;28;20038;-39
2022/03/13 01:56:39;;;;;;;23.58;16.25;;;8.00;90.20;;;;;;5010538;28;20046;-39
2022/03/13 01:59:07;;;;;;;27.13;17.08;;;8.10;90.00;;;;;;5010619;28;20482;-39
2022/03/13 02:01:34;;;;;;;23.77;16.45;;;8.20;89.90;;;;;;5011339;28;20481;-39
2022/03/13 02:04:03;;;;;;;27.38;17.35;;;8.20;89.80;;;;;;5009196;28;20046;-39
2022/03/13 02:06:30;;;;;;;28.45;16.70;;;8.20;89.80;;;;;;5010598;28;20092;-39
2022/03/13 02:08:57;;;;;;;25.25;17.27;;;8.30;89.50;;;;;;5009470;28;20049;-40
2022/03/13 02:11:24;;;;;;;24.10;16.20;;;8.30;89.30;;;;;;5009652;28;20484;-39
2022/03/13 02:13:51;;;;;;;26.17;16.08;;;8.30;89.20;;;;;;5009828;28;20044;-39
2022/03/13 02:16:19;;;;;;;26.27;17.50;;;8.40;89.10;;;;;;5005468;28;20058;-39
2022/03/13 02:18:48;;;;;;;23.05;15.48;;;8.40;89.20;;;;;;5010727;28;20042;-39
2022/03/13 02:21:16;;;;;;;24.92;16.90;;;8.40;89.00;;;;;;5009276;28;20054;-39
2022/03/13 02:23:44;;;;;;;27.02;16.52;;;8.50;89.00;;;;;;5008368;28;20049;-39
2022/03/13 02:26:11;;;;;;;25.40;16.65;;;8.50;88.80;;;;;;5011263;28;20042;-39
2022/03/13 02:28:38;;;;;;;31.48;17.55;;;8.50;88.60;;;;;;5011922;28;20056;-39
2022/03/13 02:31:06;;;;;;;25.10;17.15;;;8.50;88.50;;;;;;5010585;28;20045;-40
2022/03/13 02:33:33;;;;;;;29.65;17.73;;;8.50;88.50;;;;;;5009911;28;20635;-40
2022/03/13 02:36:00;;;;;;;27.33;16.27;;;8.50;88.40;;;;;;5013536;28;20074;-40
2022/03/13 02:38:28;;;;;;;25.13;16.83;;;8.50;88.30;;;;;;5011461;28;20501;-40
2022/03/13 02:40:56;;;;;;;24.58;15.93;;;8.50;88.20;;;;;;5011597;28;20041;-40
2022/03/13 02:43:23;;;;;;;23.35;16.52;;;8.60;88.30;;;;;;5013288;28;20121;-40
2022/03/13 02:45:52;;;;;;;23.73;16.00;;;8.50;88.30;;;;;;5010117;28;20045;-40
2022/03/13 02:48:19;;;;;;;23.20;15.88;;;8.50;88.40;;;;;;5006484;28;20050;-40
2022/03/13 02:50:45;;;;;;;26.13;17.38;;;8.50;88.50;;;;;;5011311;28;20045;-40
2022/03/13 02:53:12;;;;;;;24.55;16.45;;;8.50;88.70;;;;;;5009129;28;20042;-40
2022/03/13 02:55:40;;;;;;;27.60;16.58;;;8.40;88.80;;;;;;5013182;28;20041;-39
2022/03/13 02:58:09;;;;;;;27.92;17.40;;;8.40;89.10;;;;;;5011654;28;20034;-40
2022/03/13 03:00:44;;;;;;;25.77;17.80;;;8.40;89.20;;;;;;5012724;28;20105;-40
2022/03/13 03:03:13;;;;;;;25.17;16.88;;;8.30;89.60;;;;;;5011982;28;20041;-39
2022/03/13 03:05:40;;;;;;;27.75;17.52;;;8.20;89.70;;;;;;5013250;28;20056;-40
2022/03/13 03:08:07;;;;;;;24.05;17.25;;;8.20;89.80;;;;;;5012245;28;20492;-39
2022/03/13 03:10:34;;;;;;;25.77;16.27;;;8.10;89.90;;;;;;5004589;28;20041;-40
2022/03/13 03:13:01;;;;;;;25.70;16.77;;;8.10;90.00;;;;;;5012391;28;20128;-40
2022/03/13 03:15:29;;;;;;;24.33;16.52;;;8.10;90.10;;;;;;4975821;28;1062706;-40
2022/03/13 03:17:56;;;;;;;24.70;16.55;;;8.10;90.20;;;;;;5012730;28;20133;-40
2022/03/13 03:20:23;;;;;;;27.70;17.50;;;8.00;90.10;;;;;;5010807;28;20137;-40
2022/03/13 03:22:51;;;;;;;25.95;17.52;;;8.10;90.10;;;;;;5012187;28;20049;-40
2022/03/13 03:25:20;;;;;;;23.65;16.73;;;8.00;90.10;;;;;;5013116;28;20489;-40
2022/03/13 03:27:47;;;;;;;25.70;16.85;;;8.00;90.20;;;;;;5013814;28;20041;-40
2022/03/13 03:30:14;;;;;;;26.45;18.00;;;7.90;90.30;;;;;;5014289;28;20038;-40
2022/03/13 03:32:42;;;;;;;31.65;18.10;;;7.90;90.40;;;;;;5007887;28;20042;-40
2022/03/13 03:35:09;;;;;;;29.85;19.33;;;7.80;90.50;;;;;;5014206;28;20041;-40
2022/03/13 03:37:36;;;;;;;26.55;18.50;;;7.70;90.60;;;;;;5012989;28;20060;-40
2022/03/13 03:40:04;;;;;;;27.77;19.38;;;7.70;90.60;;;;;;5012764;28;20080;-40
2022/03/13 03:42:31;;;;;;;29.33;19.85;;;7.60;90.80;;;;;;5010514;28;20478;-38
2022/03/13 03:44:58;;;;;;;28.35;19.40;;;7.60;90.90;;;;;;5014091;28;20042;-40
2022/03/13 03:47:25;;;;;;;29.45;19.20;;;7.50;91.00;;;;;;5012457;28;20491;-40
2022/03/13 03:49:53;;;;;;;30.58;19.75;;;7.40;91.20;;;;;;5011127;28;20378;-40
2022/03/13 03:52:20;;;;;;;27.92;19.60;;;7.30;91.30;;;;;;5012495;28;20050;-40
2022/03/13 03:54:46;;;;;;;28.85;19.38;;;7.30;91.40;;;;;;5012814;28;20042;-39
2022/03/13 03:57:13;;;;;;;27.02;19.55;;;7.20;91.50;;;;;;5012446;28;20048;-40
2022/03/13 03:59:40;;;;;;;29.40;18.95;;;7.10;91.60;;;;;;5012483;28;20132;-40
2022/03/13 04:02:07;;;;;;;28.35;20.10;;;7.10;91.80;;;;;;5010156;28;20489;-40
2022/03/13 04:04:33;;;;;;;34.03;21.33;;;7.00;92.00;;;;;;5027689;28;20048;-39
2022/03/13 04:07:02;;;;;;;35.28;20.77;;;7.00;92.10;;;;;;5012974;28;20045;-39
2022/03/13 04:09:28;;;;;;;36.05;22.25;;;6.90;92.10;;;;;;5013085;28;20049;-38
2022/03/13 04:11:55;;;;;;;36.85;22.90;;;6.80;92.10;;;;;;5013147;28;20048;-39
2022/03/13 04:14:22;;;;;;;30.20;21.20;;;6.80;92.20;;;;;;5012527;28;20385;-39
2022/03/13 04:16:52;;;;;;;29.63;19.38;;;6.80;92.30;;;;;;5013037;28;20508;-39
2022/03/13 04:19:19;;;;;;;29.02;20.05;;;6.70;92.30;;;;;;5013412;28;20046;-40
2022/03/13 04:21:46;;;;;;;26.85;19.25;;;6.70;92.40;;;;;;5013241;28;20050;-40
2022/03/13 04:24:14;;;;;;;30.10;19.27;;;6.70;92.50;;;;;;5009058;28;20041;-40
2022/03/13 04:26:41;;;;;;;25.17;17.60;;;6.60;93.00;;;;;;5012365;28;20045;-40
2022/03/13 04:29:10;;;;;;;27.67;20.10;;;6.60;92.60;;;;;;5011611;28;20042;-40
2022/03/13 04:31:37;;;;;;;28.73;19.00;;;6.60;92.70;;;;;;5008513;28;20060;-40
2022/03/13 04:34:03;;;;;;;31.02;19.58;;;6.60;92.80;;;;;;5011831;28;20038;-40
2022/03/13 04:36:32;;;;;;;30.60;19.70;;;6.60;93.00;;;;;;5013271;28;20045;-39
2022/03/13 04:38:59;;;;;;;39.13;20.55;;;6.60;93.00;;;;;;5010482;28;20049;-39
2022/03/13 04:41:27;;;;;;;30.08;19.67;;;6.60;93.00;;;;;;5010967;28;20509;-39
2022/03/13 04:43:54;;;;;;;30.25;19.98;;;6.50;93.20;;;;;;5011211;28;20061;-39
2022/03/13 04:46:21;;;;;;;26.50;19.10;;;6.50;93.20;;;;;;5011568;28;20386;-39
2022/03/13 04:48:47;;;;;;;29.02;20.90;;;6.50;93.20;;;;;;5011459;28;20042;-39
2022/03/13 04:51:14;;;;;;;34.88;20.13;;;6.50;93.30;;;;;;5012270;28;20053;-39
2022/03/13 04:53:41;;;;;;;28.60;19.48;;;6.50;93.30;;;;;;5011589;28;20478;-39
2022/03/13 04:56:08;;;;;;;29.90;19.55;;;6.50;93.50;;;;;;5011611;28;20038;-39
2022/03/13 04:58:36;;;;;;;30.48;20.02;;;6.40;93.50;;;;;;5012439;28;20318;-39
2022/03/13 05:01:03;;;;;;;32.70;20.67;;;6.50;93.50;;;;;;5010379;28;20096;-39
2022/03/13 05:03:32;;;;;;;28.65;19.60;;;6.40;93.50;;;;;;5011595;28;20068;-39
2022/03/13 05:05:58;;;;;;;30.30;19.35;;;6.40;93.50;;;;;;5012546;28;20053;-39
2022/03/13 05:08:26;;;;;;;31.58;20.05;;;6.40;93.50;;;;;;5012016;28;20478;-39
2022/03/13 05:10:53;;;;;;;29.13;18.70;;;6.40;93.60;;;;;;5009862;28;20058;-39
2022/03/13 05:13:22;;;;;;;32.58;19.58;;;6.40;93.60;;;;;;5011931;28;20467;-39
2022/03/13 05:15:52;;;;;;;28.33;19.17;;;6.30;93.70;;;;;;5008987;28;20050;-39
2022/03/13 05:18:19;;;;;;;29.85;19.17;;;6.30;93.80;;;;;;5011310;28;20053;-39
2022/03/13 05:20:45;;;;;;;29.10;20.10;;;6.30;93.70;;;;;;5011906;28;20048;-40
2022/03/13 05:23:12;;;;;;;26.67;18.80;;;6.30;93.70;;;;;;5011004;28;20058;-39
2022/03/13 05:25:40;;;;;;;30.20;20.33;;;6.30;93.80;;;;;;5012007;28;20181;-39
2022/03/13 05:28:07;;;;;;;26.83;18.23;;;6.20;93.80;;;;;;5010683;28;20047;-39
2022/03/13 05:30:34;;;;;;;28.48;19.13;;;6.20;93.80;;;;;;5009608;28;20056;-39
2022/03/13 05:33:02;;;;;;;32.75;20.27;;;6.20;94.00;;;;;;5005822;28;20081;-39
2022/03/13 05:35:29;;;;;;;30.15;19.05;;;6.20;94.10;;;;;;5006944;28;20462;-39
2022/03/13 05:37:56;;;;;;;29.08;20.02;;;6.10;94.00;;;;;;5011231;28;20053;-39
2022/03/13 05:40:22;;;;;;;30.73;19.90;;;6.10;94.10;;;;;;5012110;28;20046;-39
2022/03/13 05:42:50;;;;;;;30.92;19.73;;;6.00;94.00;;;;;;5010403;28;20050;-39
2022/03/13 05:45:19;;;;;;;27.05;18.35;;;6.00;94.00;;;;;;5011608;28;20080;-39
2022/03/13 05:47:46;;;;;;;28.00;19.63;;;6.00;94.00;;;;;;5011316;28;20042;-39
2022/03/13 05:50:14;;;;;;;30.15;19.67;;;6.00;94.00;;;;;;5009201;28;20470;-39
2022/03/13 05:52:41;;;;;;;29.10;18.77;;;6.00;93.90;;;;;;5010187;28;20050;-39
2022/03/13 05:55:08;;;;;;;30.15;19.48;;;6.00;93.90;;;;;;5009936;28;20485;-39
2022/03/13 05:57:35;;;;;;;34.00;21.00;;;6.00;93.90;;;;;;5010691;28;20053;-39
2022/03/13 06:00:05;;;;;;;30.30;19.10;;;5.90;93.90;;;;;;5009213;28;20046;-39
2022/03/13 06:02:32;;;;;;;31.10;19.65;;;5.90;93.80;;;;;;5015164;28;20495;-39
2022/03/13 06:04:59;;;;;;;28.40;19.17;;;5.90;93.80;;;;;;5031051;28;20053;-39
2022/03/13 06:07:27;;;;;;;32.03;20.13;;;5.90;93.80;;;;;;5015514;28;20046;-39
2022/03/13 06:09:54;;;;;;;28.17;19.17;;;5.90;93.80;;;;;;5014937;28;20052;-39
2022/03/13 06:12:20;;;;;;;30.88;19.25;;;5.80;93.80;;;;;;5015355;28;20540;-39
2022/03/13 06:14:47;;;;;;;30.73;18.90;;;5.80;93.80;;;;;;5014944;28;20045;-39
2022/03/13 06:17:14;;;;;;;28.00;18.25;;;5.80;93.80;;;;;;5015393;28;20081;-39
2022/03/13 06:19:42;;;;;;;26.67;18.67;;;5.80;93.80;;;;;;5012257;28;20050;-38
2022/03/13 06:22:10;;;;;;;34.30;18.67;;;5.80;93.70;;;;;;5012239;28;20057;-39
2022/03/13 06:24:38;;;;;;;28.40;18.67;;;5.80;93.70;;;;;;5014005;28;20125;-39
2022/03/13 06:27:06;;;;;;;30.75;18.27;;;5.80;93.60;;;;;;5014277;28;20056;-39
2022/03/13 06:29:32;;;;;;;27.85;18.25;;;5.80;93.60;;;;;;5014880;28;20052;-39
2022/03/13 06:31:59;;;;;;;27.10;17.38;;;5.80;93.50;;;;;;5013650;28;20042;-39
2022/03/13 06:34:26;;;;;;;26.50;18.88;;;5.90;93.40;;;;;;5011268;28;20121;-39
2022/03/13 06:36:53;;;;;;;27.15;18.08;;;5.90;93.30;;;;;;5015200;28;20073;-40
2022/03/13 06:39:19;;;;;;;31.73;18.25;;;5.90;93.20;;;;;;5010547;28;20435;-39
2022/03/13 06:41:47;;;;;;;26.83;17.13;;;5.90;93.10;;;;;;5014093;28;20041;-39
2022/03/13 06:44:14;;;;;;;25.90;17.05;;;5.90;93.00;;;;;;5013562;28;20053;-39
2022/03/13 06:46:40;;;;;;;25.55;16.70;;;5.90;92.90;;;;;;5012847;28;20064;-41
2022/03/13 06:49:07;;;;;;;30.88;18.38;;;6.00;92.90;;;;;;5012933;28;20050;-40
2022/03/13 06:51:34;;;;;;;25.80;17.08;;;6.00;92.80;;;;;;5013289;28;20045;-39
2022/03/13 06:54:01;;;;;;;25.77;17.58;;;6.00;92.80;;;;;;5013685;28;20053;-39
2022/03/13 06:56:29;;;;;;;24.25;16.25;;;6.10;92.70;;;;;;5013652;28;20107;-39
2022/03/13 06:59:03;;;;;;;29.77;16.92;;;6.10;92.60;;;;;;5013144;28;20561;-39
2022/03/13 07:01:29;;;;;;;22.55;16.05;;;6.10;92.50;;;;;;5014552;28;20056;-39
2022/03/13 07:03:56;;;;;;;26.40;16.90;;;6.20;92.40;;;;;;5012496;28;20501;-39
2022/03/13 07:06:23;;;;;;;26.83;16.27;;;6.30;92.30;;;;;;5012783;28;20362;-40
2022/03/13 07:08:49;;;;;;;25.45;16.60;;;6.30;92.10;;;;;;5014188;28;20054;-39
2022/03/13 07:11:16;;;;;;;24.45;16.17;;;6.40;91.90;;;;;;5013545;28;20049;-39
2022/03/13 07:13:44;;;;;;;27.50;16.27;;;6.40;91.80;;;;;;5013908;28;20077;-39
2022/03/13 07:16:15;;;;;;;25.73;16.70;;;6.50;91.70;;;;;;5013786;28;20401;-40
2022/03/13 07:18:42;;;;;;;20.95;14.80;;;6.60;91.50;;;;;;5012971;28;20105;-39
2022/03/13 07:21:08;;;;;;;26.20;16.15;;;6.70;91.40;;;;;;5014310;28;20045;-39
2022/03/13 07:23:35;;;;;;;27.77;16.35;;;6.70;91.20;;;;;;5013351;28;20054;-39
2022/03/13 07:26:02;;;;;;;28.98;15.70;;;6.80;91.00;;;;;;5011859;28;20041;-39
2022/03/13 07:28:29;;;;;;;21.73;15.70;;;6.80;90.90;;;;;;5010707;28;20048;-39
2022/03/13 07:30:56;;;;;;;23.08;15.63;;;6.90;90.70;;;;;;5009855;28;20041;-39
2022/03/13 07:33:24;;;;;;;25.88;15.88;;;7.00;90.60;;;;;;5008481;28;20034;-40
2022/03/13 07:35:51;;;;;;;24.20;15.02;;;7.10;90.50;;;;;;5012117;28;20169;-39
2022/03/13 07:38:17;;;;;;;21.27;14.13;;;7.20;90.10;;;;;;5012399;28;20052;-39
2022/03/13 07:40:44;;;;;;;23.35;15.82;;;7.30;90.00;;;;;;5009233;28;20038;-39
2022/03/13 07:43:11;;;;;;;24.83;16.27;;;7.40;89.70;;;;;;5009805;28;20041;-39
2022/03/13 07:45:38;;;;;;;26.35;15.57;;;7.40;89.20;;;;;;5011619;28;20050;-39
2022/03/13 07:48:05;;;;;;;25.85;14.25;;;7.50;88.40;;;;;;5011708;28;20038;-39
2022/03/13 07:50:33;;;;;;;22.00;14.40;;;7.60;88.10;;;;;;5012556;28;20070;-39
2022/03/13 07:53:00;;;;;;;20.98;15.00;;;7.70;87.90;;;;;;5013724;28;20565;-39
2022/03/13 07:55:27;;;;;;;23.63;15.18;;;7.70;87.20;;;;;;5012042;28;20188;-39
2022/03/13 07:57:54;;;;;;;24.55;14.93;;;7.80;86.50;;;;;;5013506;28;20042;-39
2022/03/13 08:00:22;;;;;;;22.50;14.88;;;7.80;86.10;;;;;;5009088;28;20486;-39
2022/03/13 08:02:48;;;;;;;22.88;14.10;;;7.90;85.80;;;;;;5028728;28;20049;-39
2022/03/13 08:05:15;;;;;;;19.38;13.90;;;7.90;85.10;;;;;;5011443;28;20389;-39
2022/03/13 08:07:44;;;;;;;24.88;14.55;;;8.00;84.30;;;;;;5013426;28;20073;-40
2022/03/13 08:10:10;;;;;;;21.30;13.98;;;8.20;84.00;;;;;;5010637;28;20108;-39
2022/03/13 08:12:38;;;;;;;20.27;14.35;;;8.30;83.30;;;;;;5013361;28;20132;-39
2022/03/13 08:15:06;;;;;;;19.98;14.32;;;8.50;83.00;;;;;;5012601;28;20359;-39
2022/03/13 08:17:33;;;;;;;22.40;14.15;;;8.60;82.30;;;;;;5011615;28;20046;-39
2022/03/13 08:20:00;;;;;;;20.77;14.23;;;8.60;81.60;;;;;;5009751;28;20044;-39
2022/03/13 08:22:27;;;;;;;19.85;13.18;;;8.70;81.40;;;;;;5008711;28;20057;-39
2022/03/13 08:24:55;;;;;;;22.95;15.00;;;8.70;81.00;;;;;;5006091;28;20060;-39
2022/03/13 08:27:21;;;;;;;24.25;14.45;;;8.70;80.10;;;;;;5008131;28;20065;-39
2022/03/13 08:29:48;;;;;;;21.88;14.63;;;8.80;80.30;;;;;;5010493;28;20046;-39
2022/03/13 08:32:16;;;;;;;26.30;15.18;;;8.90;79.80;;;;;;5010976;28;20441;-39
2022/03/13 08:34:44;;;;;;;21.35;13.98;;;9.10;79.20;;;;;;5009521;28;20053;-39
2022/03/13 08:37:11;;;;;;;19.00;12.95;;;9.20;78.80;;;;;;5010984;28;20045;-39
2022/03/13 08:39:37;;;;;;;22.95;14.32;;;9.40;78.40;;;;;;5009931;28;20046;-40
2022/03/13 08:42:06;;;;;;;24.27;13.82;;;9.50;77.40;;;;;;5012302;28;20108;-40
2022/03/13 08:44:33;;;;;;;21.48;14.13;;;9.70;77.10;;;;;;5005225;28;20048;-40
2022/03/13 08:47:00;;;;;;;23.40;13.48;;;9.80;76.80;;;;;;5009791;28;20060;-40
2022/03/13 08:49:26;;;;;;;22.75;14.10;;;9.90;75.80;;;;;;5010330;28;20085;-40
2022/03/13 08:51:54;;;;;;;21.60;14.00;;;10.10;75.30;;;;;;5007212;28;20136;-39
2022/03/13 08:54:20;;;;;;;21.85;13.93;;;10.20;73.60;;;;;;5007823;28;20056;-39
2022/03/13 08:56:48;;;;;;;20.20;13.95;;;10.30;72.60;;;;;;5012893;28;20048;-39
2022/03/13 08:59:18;;;;;;;18.90;13.02;;;10.40;72.00;;;;;;5010904;28;20100;-39
2022/03/13 09:01:44;;;;;;;21.17;13.65;;;10.50;71.90;;;;;;5010035;28;20072;-39
2022/03/13 09:04:11;;;;;;;20.92;13.23;;;10.70;71.60;;;;;;5010786;28;20128;-39
2022/03/13 09:06:39;;;;;;;22.80;13.73;;;10.80;70.00;;;;;;5010984;28;20038;-40
2022/03/13 09:09:06;;;;;;;20.23;13.27;;;10.80;69.20;;;;;;5010537;28;20069;-39
2022/03/13 09:11:34;;;;;;;19.52;12.80;;;10.90;68.50;;;;;;5011060;28;20057;-39
2022/03/13 09:14:01;;;;;;;21.27;13.13;;;11.00;67.90;;;;;;5002796;28;20046;-40
2022/03/13 09:16:31;;;;;;;22.02;13.18;;;11.00;67.10;;;;;;5010212;28;20058;-39
2022/03/13 09:18:57;;;;;;;18.60;13.00;;;11.20;66.60;;;;;;5011179;28;20057;-40
2022/03/13 09:21:24;;;;;;;21.30;13.35;;;11.30;66.90;;;;;;5007852;28;20054;-40
2022/03/13 09:23:51;;;;;;;20.65;13.13;;;11.40;66.20;;;;;;5006826;28;20512;-40
2022/03/13 09:26:18;;;;;;;22.80;12.88;;;11.40;65.40;;;;;;5010788;28;20381;-40
2022/03/13 09:28:44;;;;;;;21.05;13.20;;;11.50;65.90;;;;;;5011816;28;20069;-41
2022/03/13 09:31:11;;;;;;;19.35;13.43;;;11.70;65.10;;;;;;5009649;28;20049;-40
2022/03/13 09:33:39;;;;;;;21.58;13.43;;;11.70;64.20;;;;;;5011844;28;20054;-40
2022/03/13 09:36:06;;;;;;;22.70;13.13;;;11.80;64.10;;;;;;5010065;28;20438;-41
2022/03/13 09:38:34;;;;;;;21.33;13.35;;;11.90;64.20;;;;;;5011894;28;20428;-40
2022/03/13 09:41:00;;;;;;;21.92;13.70;;;12.10;63.70;;;;;;5009224;28;20042;-40
2022/03/13 09:43:27;;;;;;;20.35;13.27;;;12.20;63.20;;;;;;5011072;28;20048;-41
2022/03/13 09:45:54;;;;;;;20.58;13.25;;;12.30;62.60;;;;;;5011493;28;20041;-41
2022/03/13 09:48:21;;;;;;;20.33;13.57;;;12.40;62.60;;;;;;5009914;28;20038;-40
2022/03/13 09:50:49;;;;;;;23.58;13.38;;;12.50;63.10;;;;;;5025367;28;20193;-40
2022/03/13 09:53:16;;;;;;;25.85;12.75;;;12.60;61.70;;;;;;5011326;28;20141;-39
2022/03/13 09:55:42;;;;;;;20.48;13.55;;;12.70;61.50;;;;;;5007717;28;20042;-39
2022/03/13 09:58:09;;;;;;;25.88;13.85;;;12.90;61.20;;;;;;5011607;28;20038;-39
2022/03/13 10:00:36;;;;;;;21.75;13.82;;;12.90;61.10;;;;;;5010254;28;20054;-39
2022/03/13 10:03:08;;;;;;;21.95;13.43;;;13.10;60.40;;;;;;5004940;28;20053;-40
2022/03/13 10:05:41;;;;;;;20.00;13.45;;;13.20;59.70;;;;;;5004103;28;20050;-40
2022/03/13 10:08:09;;;;;;;22.92;13.65;;;13.30;59.00;;;;;;5007435;28;20042;-40
2022/03/13 10:10:41;;;;;;;22.83;13.25;;;13.40;59.50;;;;;;5011948;28;20049;-40
2022/03/13 10:13:08;;;;;;;24.92;13.95;;;13.50;59.00;;;;;;5012518;28;20498;-41
2022/03/13 10:15:41;;;;;;;21.65;14.02;;;13.60;59.40;;;;;;5010530;28;20125;-40
2022/03/13 10:18:12;;;;;;;19.98;13.85;;;13.70;58.60;;;;;;5011290;28;20088;-41
2022/03/13 10:20:41;;;;;;;20.65;13.30;;;13.80;58.80;;;;;;5008440;28;20049;-41
2022/03/13 10:23:11;;;;;;;21.13;14.10;;;13.80;59.30;;;;;;5011137;28;20048;-40
2022/03/13 10:25:39;;;;;;;20.92;13.68;;;13.90;58.90;;;;;;5005704;28;20046;-42
2022/03/13 10:28:16;;;;;;;23.02;14.00;;;14.00;58.80;;;;;;5004100;28;20070;-41
2022/03/13 10:30:43;;;;;;;21.83;13.73;;;14.20;58.10;;;;;;5005302;28;20066;-41
2022/03/13 10:33:10;;;;;;;18.73;13.52;;;14.20;58.60;;;;;;5010567;28;20128;-41
2022/03/13 10:35:37;;;;;;;27.13;13.70;;;14.20;58.90;;;;;;5008994;28;20484;-41
2022/03/13 10:38:05;;;;;;;32.45;15.02;;;14.40;58.60;;;;;;5010610;28;20564;-40
2022/03/13 10:40:36;;;;;;;20.95;14.30;;;14.50;58.00;;;;;;5009301;28;20116;-40
2022/03/13 10:43:04;;;;;;;23.15;13.82;;;14.50;57.40;;;;;;5005975;28;20466;-40
2022/03/13 10:45:37;;;;;;;21.98;14.15;;;14.60;57.50;;;;;;5005831;28;20062;-40
2022/03/13 10:48:28;;;;;;;25.48;15.13;;;14.80;56.70;;;;;;5012426;28;20049;-42
2022/03/13 10:50:55;;;;;;;18.95;14.07;;;14.90;55.70;;;;;;5004508;28;20062;-41
2022/03/13 10:53:22;;;;;;;20.20;13.90;;;15.00;57.50;;;;;;5005539;28;20042;-40
2022/03/13 10:56:09;;;;;;;23.27;14.60;;;15.10;57.10;;;;;;5006443;28;20045;-40
2022/03/13 10:58:37;;;;;;;21.25;14.48;;;15.20;55.70;;;;;;5006176;28;20089;-41
2022/03/13 11:01:05;;;;;;;21.95;14.23;;;15.20;56.50;;;;;;5006476;28;20053;-40
2022/03/13 11:03:33;;;;;;;21.77;14.32;;;15.30;56.20;;;;;;5004324;28;20469;-40
2022/03/13 11:06:00;;;;;;;20.83;14.75;;;15.40;56.10;;;;;;5010687;28;20529;-41
2022/03/13 11:08:27;;;;;;;20.80;15.35;;;15.40;56.00;;;;;;5004166;28;20081;-41
2022/03/13 11:10:54;;;;;;;19.90;15.18;;;15.50;55.90;;;;;;5005141;28;20053;-42
2022/03/13 11:13:25;;;;;;;20.58;15.23;;;15.70;56.10;;;;;;5012608;28;20046;-41
2022/03/13 11:15:52;;;;;;;27.35;15.07;;;15.80;55.40;;;;;;5005094;28;20061;-42
2022/03/13 11:18:19;;;;;;;19.90;14.38;;;15.90;55.50;;;;;;5009484;28;20058;-41
2022/03/13 11:20:47;;;;;;;20.77;15.15;;;16.00;55.10;;;;;;5000144;28;20050;-39
2022/03/13 11:23:14;;;;;;;19.35;13.73;;;16.00;54.60;;;;;;5008837;28;20046;-41
2022/03/13 11:25:41;;;;;;;23.00;14.73;;;16.00;55.30;;;;;;5006845;28;20072;-41
2022/03/13 11:28:08;;;;;;;20.90;14.15;;;16.10;54.70;;;;;;5007659;28;20093;-42
2022/03/13 11:30:37;;;;;;;22.58;15.68;;;16.20;54.10;;;;;;5010606;28;20478;-41
2022/03/13 11:33:04;;;;;;;19.75;14.43;;;16.10;53.50;;;;;;5011502;28;20049;-41
2022/03/13 11:35:31;;;;;;;21.27;14.70;;;16.00;53.60;;;;;;5008630;28;20038;-41
2022/03/13 11:38:20;;;;;;;20.40;14.50;;;16.00;53.80;;;;;;5013486;28;20052;-41
2022/03/13 11:40:47;;;;;;;22.35;14.90;;;16.00;52.40;;;;;;5011031;28;20054;-42
2022/03/13 11:43:15;;;;;;;21.73;15.57;;;16.10;53.40;;;;;;5008570;28;20062;-43
2022/03/13 11:45:43;;;;;;;22.67;14.93;;;16.10;53.20;;;;;;5003726;28;20129;-41
2022/03/13 11:48:45;;;;;;;26.25;15.65;;;16.20;53.70;;;;;;5007714;28;20046;-41
2022/03/13 11:51:27;;;;;;;23.30;15.25;;;16.30;52.60;;;;;;5010278;28;20052;-42
2022/03/13 11:53:53;;;;;;;23.10;14.68;;;16.40;53.50;;;;;;5007700;28;20058;-42
2022/03/13 11:56:26;;;;;;;20.60;14.88;;;16.40;53.20;;;;;;5010676;28;20087;-42
2022/03/13 11:58:53;;;;;;;22.48;15.00;;;16.50;52.80;;;;;;5009125;28;20385;-41
2022/03/13 12:01:30;;;;;;;21.50;15.43;;;16.50;53.00;;;;;;5007550;28;20049;-42
2022/03/13 12:04:36;;;;;;;24.15;15.60;;;16.60;52.80;;;;;;5011633;28;20041;-42
2022/03/13 12:07:06;;;;;;;25.17;15.40;;;16.80;51.80;;;;;;5004869;28;20044;-42
2022/03/13 12:09:43;;;;;;;22.45;15.50;;;16.80;52.10;;;;;;5010011;28;20042;-43
2022/03/13 12:12:12;;;;;;;21.38;15.18;;;16.90;52.30;;;;;;5011992;28;20054;-41
2022/03/13 12:15:00;;;;;;;19.15;14.75;;;17.00;52.40;;;;;;5012054;28;20034;-43
2022/03/13 12:17:29;;;;;;;21.50;14.55;;;17.10;51.90;;;;;;5011870;28;20081;-41
2022/03/13 12:19:56;;;;;;;23.48;14.80;;;17.10;52.00;;;;;;5010514;28;20141;-43
2022/03/13 12:22:25;;;;;;;23.05;14.48;;;17.10;51.70;;;;;;5011194;28;20101;-44
2022/03/13 12:24:52;;;;;;;20.58;14.55;;;17.10;51.50;;;;;;5007177;28;20116;-42
2022/03/13 12:27:19;;;;;;;20.15;14.63;;;17.10;51.30;;;;;;5006058;28;20144;-41
2022/03/13 12:29:55;;;;;;;19.98;14.60;;;17.10;51.00;;;;;;5006155;28;20046;-41
2022/03/13 12:32:22;;;;;;;22.60;14.77;;;17.10;50.40;;;;;;5011263;28;20478;-42
2022/03/13 12:34:50;;;;;;;20.13;14.88;;;17.10;51.00;;;;;;5003082;28;20056;-42
2022/03/13 12:37:16;;;;;;;20.65;13.93;;;17.10;50.80;;;;;;5004532;28;20053;-42